Time;durP1;ratioP1;P1;durP2;ratioP2;P2;SDS_P1;SDS_P2;PMS_P1;PMS_P2;Temp;Humidity;BMP_temperature;BMP_pressure;BME280_temperature;BME280_humidity;BME280_pressure;Samples;Min_cycle;Max_cycle;Signal;HPM_P1;HPM_P2
2021/11/28 00:00:42;;;;;;;27.52;21.45;;;3.70;1.00;;;;;;5067786;28;20209;-83
2021/11/28 00:03:10;;;;;;;27.45;21.30;;;3.80;1.00;;;;;;5067908;28;20217;-83
2021/11/28 00:05:39;;;;;;;26.13;21.00;;;3.80;1.00;;;;;;5075932;28;20228;-83
2021/11/28 00:13:46;;;;;;;27.27;23.08;;;3.70;1.00;;;;;;5056802;28;20217;-84
2021/11/28 00:16:14;;;;;;;22.42;18.90;;;3.60;1.00;;;;;;5056114;28;20957;-83
2021/11/28 00:18:41;;;;;;;31.15;21.98;;;3.50;1.00;;;;;;5041084;28;20230;-84
2021/11/28 00:21:11;;;;;;;26.00;20.48;;;3.50;1.00;;;;;;5075186;28;20256;-83
2021/11/28 00:23:38;;;;;;;25.63;21.02;;;3.40;1.00;;;;;;5056971;28;20217;-84
2021/11/28 00:26:06;;;;;;;29.67;21.63;;;3.40;1.00;;;;;;5055261;28;20419;-83
2021/11/28 00:28:33;;;;;;;26.08;21.42;;;3.40;1.00;;;;;;5055155;28;20228;-83
2021/11/28 00:31:01;;;;;;;28.90;20.88;;;3.40;1.00;;;;;;5055661;28;20224;-82
2021/11/28 00:33:28;;;;;;;28.67;22.23;;;3.40;1.00;;;;;;5051484;28;21377;-84
2021/11/28 00:35:55;;;;;;;26.52;21.35;;;3.40;1.00;;;;;;5055014;28;20239;-83
2021/11/28 00:38:23;;;;;;;29.88;23.15;;;3.40;1.00;;;;;;5058217;28;20248;-83
2021/11/28 00:40:50;;;;;;;31.38;23.67;;;3.30;1.00;;;;;;5049182;28;20350;-83
2021/11/28 00:43:18;;;;;;;27.08;21.65;;;3.30;1.00;;;;;;5037189;28;20759;-84
2021/11/28 00:45:46;;;;;;;23.55;19.35;;;3.40;1.00;;;;;;5054296;28;20229;-84
2021/11/28 00:48:13;;;;;;;25.92;20.45;;;3.40;1.00;;;;;;5039854;28;21055;-84
2021/11/28 00:50:45;;;;;;;23.60;20.60;;;3.40;1.00;;;;;;5057769;28;21078;-84
2021/11/28 00:53:14;;;;;;;29.85;22.75;;;3.40;1.00;;;;;;5059167;28;20327;-84
2021/11/28 00:55:43;;;;;;;29.20;20.77;;;3.30;1.00;;;;;;5062145;28;20279;-85
2021/11/28 00:58:10;;;;;;;23.85;19.55;;;3.30;1.00;;;;;;5059167;28;20233;-84
2021/11/28 01:00:38;;;;;;;24.23;19.25;;;3.20;1.00;;;;;;5053736;28;20223;-85
2021/11/28 01:03:06;;;;;;;23.48;19.25;;;3.20;1.00;;;;;;5055668;28;20319;-83
2021/11/28 01:05:33;;;;;;;26.50;19.95;;;3.30;1.00;;;;;;5033060;28;20245;-83
2021/11/28 01:08:00;;;;;;;25.50;20.35;;;3.30;1.00;;;;;;5054457;28;20225;-84
2021/11/28 01:10:27;;;;;;;23.58;18.83;;;3.30;1.00;;;;;;5049985;28;20283;-83
2021/11/28 01:12:56;;;;;;;23.45;18.38;;;3.30;1.00;;;;;;5046822;28;20236;-84
2021/11/28 01:15:23;;;;;;;25.10;18.40;;;3.30;1.00;;;;;;5052358;28;21631;-83
2021/11/28 01:17:51;;;;;;;24.25;19.85;;;3.20;1.00;;;;;;5051015;28;20264;-84
2021/11/28 01:20:18;;;;;;;24.05;18.90;;;3.20;1.00;;;;;;5053772;28;20229;-83
2021/11/28 01:22:45;;;;;;;24.42;17.65;;;3.20;1.00;;;;;;5049781;28;20213;-83
2021/11/28 01:25:14;;;;;;;22.25;18.92;;;3.10;1.00;;;;;;5052376;28;20218;-83
2021/11/28 01:27:42;;;;;;;22.45;17.55;;;3.10;1.00;;;;;;5048884;28;20307;-84
2021/11/28 01:30:11;;;;;;;22.60;18.55;;;3.10;1.00;;;;;;5054049;28;20393;-83
2021/11/28 01:32:39;;;;;;;21.42;17.27;;;3.10;1.00;;;;;;5044975;28;20225;-83
2021/11/28 01:35:07;;;;;;;24.70;19.27;;;3.10;1.00;;;;;;5058045;28;20244;-83
2021/11/28 01:37:35;;;;;;;25.05;19.75;;;3.10;1.00;;;;;;5039884;28;20802;-83
2021/11/28 01:40:05;;;;;;;24.33;18.33;;;3.10;1.00;;;;;;5053671;28;21694;-83
2021/11/28 01:42:41;;;;;;;20.88;18.33;;;3.20;1.00;;;;;;5053665;28;20224;-83
2021/11/28 01:45:16;;;;;;;19.48;16.65;;;3.20;1.00;;;;;;5053258;28;20332;-83
2021/11/28 01:47:44;;;;;;;24.48;19.13;;;3.20;1.00;;;;;;5058172;28;20227;-83
2021/11/28 01:50:11;;;;;;;26.20;18.35;;;3.30;1.00;;;;;;5056235;28;20225;-84
2021/11/28 01:52:39;;;;;;;22.42;18.60;;;3.30;1.00;;;;;;5033019;28;21846;-84
2021/11/28 01:55:10;;;;;;;23.20;19.50;;;3.40;1.00;;;;;;5050453;28;20315;-83
2021/11/28 01:57:37;;;;;;;22.77;17.70;;;3.40;1.00;;;;;;5055770;28;20231;-84
2021/11/28 02:00:07;;;;;;;21.85;17.52;;;3.50;1.00;;;;;;5055323;28;20982;-83
2021/11/28 02:02:36;;;;;;;20.70;18.13;;;3.50;1.00;;;;;;5035216;28;20229;-83
2021/11/28 02:05:04;;;;;;;23.67;18.35;;;3.50;1.00;;;;;;5037756;28;20240;-82
2021/11/28 02:07:32;;;;;;;20.77;17.30;;;3.50;1.00;;;;;;5058802;28;20267;-82
2021/11/28 02:09:59;;;;;;;21.20;17.60;;;3.60;1.00;;;;;;5059953;28;20227;-82
2021/11/28 02:12:29;;;;;;;23.10;18.65;;;3.60;1.00;;;;;;5062722;28;20217;-82
2021/11/28 02:14:56;;;;;;;18.67;15.57;;;3.60;1.00;;;;;;5041765;28;20259;-82
2021/11/28 02:17:23;;;;;;;20.48;17.25;;;3.60;1.00;;;;;;5050291;28;21259;-82
2021/11/28 02:19:52;;;;;;;21.10;17.30;;;3.60;1.00;;;;;;5048671;28;20237;-83
2021/11/28 02:22:21;;;;;;;20.00;15.60;;;3.60;1.00;;;;;;5051240;28;21289;-84
2021/11/28 02:24:48;;;;;;;19.65;16.60;;;3.60;1.00;;;;;;5049372;28;20217;-83
2021/11/28 02:27:16;;;;;;;20.45;17.25;;;3.60;1.00;;;;;;5051806;28;20324;-82
2021/11/28 02:29:44;;;;;;;20.10;16.65;;;3.60;1.00;;;;;;5048988;28;20823;-83
2021/11/28 02:32:12;;;;;;;19.75;17.75;;;3.60;1.00;;;;;;5051937;28;20349;-84
2021/11/28 02:34:39;;;;;;;19.23;16.08;;;3.60;1.00;;;;;;5051430;28;20220;-82
2021/11/28 02:37:06;;;;;;;20.45;17.35;;;3.60;1.00;;;;;;5054246;28;20229;-82
2021/11/28 02:39:36;;;;;;;20.35;17.02;;;3.60;1.00;;;;;;5049776;28;20317;-82
2021/11/28 02:42:03;;;;;;;22.33;16.98;;;3.70;1.00;;;;;;5046390;28;20699;-83
2021/11/28 02:44:31;;;;;;;19.02;15.73;;;3.70;1.00;;;;;;5012318;28;20257;-83
2021/11/28 02:46:58;;;;;;;22.40;19.52;;;3.70;1.00;;;;;;5054404;28;20224;-83
2021/11/28 02:49:26;;;;;;;21.63;18.05;;;3.70;1.00;;;;;;5053517;28;20263;-83
2021/11/28 02:51:53;;;;;;;21.23;17.08;;;3.80;1.00;;;;;;5057584;28;20228;-82
2021/11/28 02:54:20;;;;;;;18.20;16.33;;;3.70;1.00;;;;;;5054945;28;20221;-82
2021/11/28 02:56:49;;;;;;;21.90;19.52;;;3.70;1.00;;;;;;5055856;28;20232;-83
2021/11/28 02:59:16;;;;;;;21.23;17.90;;;3.70;1.00;;;;;;5050214;28;20247;-83
2021/11/28 03:01:43;;;;;;;19.17;16.25;;;3.70;1.00;;;;;;5058979;28;20224;-83
2021/11/28 03:04:10;;;;;;;18.60;15.73;;;3.80;1.00;;;;;;5056406;28;20362;-82
2021/11/28 03:06:37;;;;;;;20.63;16.30;;;3.70;1.00;;;;;;5062995;28;20221;-83
2021/11/28 03:09:05;;;;;;;19.00;15.95;;;3.80;1.00;;;;;;5057271;28;20990;-84
2021/11/28 03:11:32;;;;;;;21.35;16.80;;;3.80;1.00;;;;;;5053061;28;21018;-83
2021/11/28 03:14:00;;;;;;;19.45;16.75;;;3.80;1.00;;;;;;5037693;28;20244;-83
2021/11/28 03:16:28;;;;;;;19.55;17.45;;;3.90;1.00;;;;;;5052122;28;20351;-84
2021/11/28 03:18:55;;;;;;;19.25;16.08;;;3.90;1.00;;;;;;5051904;28;20241;-83
2021/11/28 03:21:24;;;;;;;21.38;16.73;;;3.90;1.00;;;;;;5033862;28;20228;-83
2021/11/28 03:23:53;;;;;;;19.08;16.05;;;4.00;1.00;;;;;;5058060;28;20217;-84
2021/11/28 03:26:25;;;;;;;19.25;17.05;;;3.90;1.00;;;;;;5058394;28;20235;-83
2021/11/28 03:28:54;;;;;;;19.85;17.75;;;3.90;1.00;;;;;;5059542;28;20316;-83
2021/11/28 03:31:24;;;;;;;19.67;16.35;;;3.90;1.00;;;;;;5053657;28;21352;-83
2021/11/28 03:33:51;;;;;;;21.30;17.33;;;3.90;1.00;;;;;;5057384;28;21096;-83
2021/11/28 03:36:23;;;;;;;19.17;16.02;;;3.90;1.00;;;;;;5055313;28;20247;-84
2021/11/28 03:38:51;;;;;;;20.15;16.45;;;3.90;1.00;;;;;;5057334;28;20355;-83
2021/11/28 03:41:22;;;;;;;21.45;18.50;;;3.90;1.00;;;;;;5074106;27;20613;-84
2021/11/28 03:43:50;;;;;;;19.73;17.00;;;3.90;1.00;;;;;;5082952;28;20223;-82
2021/11/28 03:46:17;;;;;;;19.20;16.23;;;3.90;1.00;;;;;;5064203;28;20249;-84
2021/11/28 03:48:46;;;;;;;19.45;16.33;;;3.90;1.00;;;;;;5083827;27;20627;-82
2021/11/28 03:51:13;;;;;;;20.30;17.25;;;3.80;1.00;;;;;;5071160;28;20217;-81
2021/11/28 03:53:43;;;;;;;17.08;14.27;;;3.80;1.00;;;;;;5082604;28;20268;-83
2021/11/28 03:56:10;;;;;;;20.30;16.13;;;3.80;1.00;;;;;;5064300;28;20351;-83
2021/11/28 03:58:39;;;;;;;19.92;17.02;;;3.80;1.00;;;;;;5059987;28;20241;-83
2021/11/28 04:01:08;;;;;;;16.20;14.50;;;3.70;1.00;;;;;;5055109;28;20235;-83
2021/11/28 04:03:36;;;;;;;18.55;15.98;;;3.70;1.00;;;;;;5049593;28;20217;-83
2021/11/28 04:06:05;;;;;;;19.13;16.23;;;3.80;1.00;;;;;;5051847;28;20225;-82
2021/11/28 04:08:32;;;;;;;17.75;15.27;;;3.70;1.00;;;;;;5035575;28;20229;-82
2021/11/28 04:10:59;;;;;;;19.00;15.10;;;3.70;1.00;;;;;;5051516;28;20547;-82
2021/11/28 04:13:27;;;;;;;19.67;14.88;;;3.80;1.00;;;;;;5035718;28;20245;-82
2021/11/28 04:15:54;;;;;;;18.08;15.25;;;3.70;1.00;;;;;;5058130;28;20699;-82
2021/11/28 04:18:21;;;;;;;19.58;15.30;;;3.70;1.00;;;;;;5068912;28;20217;-82
2021/11/28 04:20:50;;;;;;;20.77;17.42;;;3.60;1.00;;;;;;5052295;28;20739;-82
2021/11/28 04:23:21;;;;;;;18.77;15.68;;;3.50;1.00;;;;;;5056059;28;20217;-83
2021/11/28 04:25:48;;;;;;;16.50;14.73;;;3.40;1.00;;;;;;5055334;28;21089;-82
2021/11/28 04:28:16;;;;;;;16.63;14.88;;;3.40;1.00;;;;;;5038966;28;20704;-82
2021/11/28 04:30:43;;;;;;;18.33;15.77;;;3.30;1.00;;;;;;5049962;28;20227;-82
2021/11/28 04:33:11;;;;;;;19.13;15.52;;;3.20;1.00;;;;;;5053079;28;20454;-83
2021/11/28 04:35:38;;;;;;;16.67;14.55;;;3.10;1.00;;;;;;5050077;28;20311;-83
2021/11/28 04:38:06;;;;;;;17.30;14.75;;;3.10;1.00;;;;;;5055110;28;20221;-84
2021/11/28 04:40:34;;;;;;;16.95;14.60;;;3.00;1.00;;;;;;5051537;28;20228;-84
2021/11/28 04:43:01;;;;;;;19.00;15.43;;;2.90;1.00;;;;;;5055227;28;20228;-85
2021/11/28 04:45:29;;;;;;;15.55;13.95;;;2.80;1.00;;;;;;5052457;28;20774;-84
2021/11/28 04:47:56;;;;;;;16.85;14.18;;;2.80;1.00;;;;;;5034679;28;20303;-84
2021/11/28 04:50:23;;;;;;;17.63;13.65;;;2.80;1.00;;;;;;5034489;28;20233;-83
2021/11/28 04:52:50;;;;;;;16.15;13.73;;;2.70;1.00;;;;;;5057223;28;20233;-84
2021/11/28 04:55:17;;;;;;;18.52;14.45;;;2.70;1.00;;;;;;5051817;28;20232;-84
2021/11/28 04:57:45;;;;;;;16.38;13.13;;;2.60;1.00;;;;;;5054384;28;21640;-83
2021/11/28 05:00:17;;;;;;;18.10;14.20;;;2.50;1.00;;;;;;5054380;28;20233;-83
2021/11/28 05:02:44;;;;;;;17.40;14.43;;;2.50;1.00;;;;;;5059161;28;20229;-84
2021/11/28 05:05:11;;;;;;;14.95;13.10;;;2.50;1.00;;;;;;5053012;28;20228;-84
2021/11/28 05:07:39;;;;;;;16.33;13.80;;;2.40;1.00;;;;;;5058900;28;20233;-84
2021/11/28 05:10:07;;;;;;;16.70;14.65;;;2.40;1.00;;;;;;5047241;28;21040;-84
2021/11/28 05:12:34;;;;;;;19.83;15.73;;;2.40;1.00;;;;;;5041291;28;20303;-84
2021/11/28 05:15:03;;;;;;;19.05;14.98;;;2.50;1.00;;;;;;5048883;28;20237;-84
2021/11/28 05:17:30;;;;;;;18.80;15.68;;;2.50;1.00;;;;;;5042446;28;20224;-84
2021/11/28 05:19:58;;;;;;;17.90;14.88;;;2.60;1.00;;;;;;5041751;28;20237;-84
2021/11/28 05:22:25;;;;;;;21.00;16.95;;;2.60;1.00;;;;;;5053505;28;20348;-83
2021/11/28 05:24:52;;;;;;;19.48;15.70;;;2.60;1.00;;;;;;5057109;28;20224;-84
2021/11/28 05:27:20;;;;;;;16.75;13.95;;;2.50;1.00;;;;;;5049463;28;20481;-83
2021/11/28 05:29:48;;;;;;;19.10;14.70;;;2.40;1.00;;;;;;5030460;28;20376;-83
2021/11/28 05:32:16;;;;;;;20.30;16.25;;;2.40;1.00;;;;;;5050767;28;20225;-84
2021/11/28 05:34:44;;;;;;;18.00;14.45;;;2.30;1.00;;;;;;5050416;28;20253;-83
2021/11/28 05:37:13;;;;;;;19.08;15.00;;;2.20;1.00;;;;;;5050679;28;20396;-84
2021/11/28 05:39:40;;;;;;;17.75;14.45;;;2.20;1.00;;;;;;5054662;28;21031;-85
2021/11/28 05:42:07;;;;;;;16.13;14.23;;;2.20;1.00;;;;;;5049843;28;20224;-84
2021/11/28 05:44:34;;;;;;;16.30;13.38;;;2.10;1.00;;;;;;5053082;28;20250;-84
2021/11/28 05:47:02;;;;;;;20.77;15.60;;;2.10;1.00;;;;;;5055216;28;20756;-84
2021/11/28 05:58:54;;;;;;;16.33;14.00;;;1.90;1.00;;;;;;5039325;28;20225;-84
2021/11/28 06:01:21;;;;;;;16.80;14.45;;;1.80;1.00;;;;;;5047831;28;20247;-84
2021/11/28 06:03:48;;;;;;;18.25;15.45;;;1.80;1.00;;;;;;5053533;28;20951;-84
2021/11/28 06:06:15;;;;;;;17.40;15.02;;;1.70;1.00;;;;;;5050341;28;20228;-82
2021/11/28 06:08:43;;;;;;;19.27;15.68;;;1.70;1.00;;;;;;5053678;28;20711;-83
2021/11/28 06:11:13;;;;;;;19.20;14.85;;;1.70;1.00;;;;;;5051430;28;20229;-82
2021/11/28 06:13:41;;;;;;;21.02;15.75;;;1.70;1.00;;;;;;5050607;28;20221;-83
2021/11/28 06:16:08;;;;;;;19.90;16.48;;;1.60;1.00;;;;;;5051834;28;20990;-83
2021/11/28 06:18:35;;;;;;;18.52;15.23;;;1.60;1.00;;;;;;5029570;28;20235;-83
2021/11/28 06:21:02;;;;;;;18.58;14.80;;;1.60;1.00;;;;;;5042416;28;20229;-82
2021/11/28 06:23:29;;;;;;;19.52;14.95;;;1.60;1.00;;;;;;5055725;28;20221;-82
2021/11/28 06:25:57;;;;;;;18.05;15.80;;;1.50;1.00;;;;;;5051839;28;20283;-83
2021/11/28 06:28:24;;;;;;;19.50;14.95;;;1.50;1.00;;;;;;5028528;28;21013;-82
2021/11/28 06:30:52;;;;;;;20.60;16.13;;;1.50;1.00;;;;;;5050746;28;20231;-82
2021/11/28 06:33:19;;;;;;;21.98;16.67;;;1.50;1.00;;;;;;5048801;28;20256;-82
2021/11/28 06:35:46;;;;;;;19.95;15.88;;;1.50;1.00;;;;;;5032858;28;20224;-83
2021/11/28 06:38:13;;;;;;;22.08;16.08;;;1.40;1.00;;;;;;5046238;28;20224;-83
2021/11/28 06:40:40;;;;;;;20.17;15.75;;;1.40;1.00;;;;;;5056400;28;20240;-83
2021/11/28 06:43:09;;;;;;;29.67;22.35;;;1.30;1.00;;;;;;5036055;28;20249;-82
2021/11/28 06:45:36;;;;;;;20.77;16.13;;;1.30;1.00;;;;;;5031277;28;20228;-82
2021/11/28 06:48:03;;;;;;;17.23;14.77;;;1.30;1.00;;;;;;5055487;28;20221;-83
2021/11/28 06:50:30;;;;;;;19.95;14.70;;;1.20;1.00;;;;;;5047497;28;20229;-83
2021/11/28 06:52:57;;;;;;;21.65;15.25;;;1.20;1.00;;;;;;5056294;28;20221;-82
2021/11/28 06:55:24;;;;;;;19.15;15.82;;;1.20;1.00;;;;;;5055779;28;20216;-83
2021/11/28 06:57:51;;;;;;;18.25;14.80;;;1.20;1.00;;;;;;5061594;28;20307;-82
2021/11/28 07:00:22;;;;;;;17.55;13.45;;;1.20;1.00;;;;;;5067662;28;20237;-83
2021/11/28 07:02:49;;;;;;;22.50;15.57;;;1.20;1.00;;;;;;5055904;28;20217;-83
2021/11/28 07:05:16;;;;;;;18.20;14.48;;;1.20;1.00;;;;;;5054657;28;20607;-83
2021/11/28 07:07:43;;;;;;;16.77;14.48;;;1.20;1.00;;;;;;5050510;28;21974;-82
2021/11/28 07:10:11;;;;;;;21.83;16.15;;;1.20;1.00;;;;;;5051002;28;20217;-82
2021/11/28 07:12:38;;;;;;;19.13;15.13;;;1.20;1.00;;;;;;5049986;28;20225;-83
2021/11/28 07:15:05;;;;;;;19.95;14.75;;;1.20;1.00;;;;;;5053438;28;20831;-84
2021/11/28 07:17:34;;;;;;;23.27;15.75;;;1.20;1.00;;;;;;5061981;28;20256;-82
2021/11/28 07:20:01;;;;;;;19.52;14.80;;;1.20;1.00;;;;;;5055155;28;21126;-82
2021/11/28 07:22:28;;;;;;;18.20;14.88;;;1.10;1.00;;;;;;5050991;28;21447;-82
2021/11/28 07:24:55;;;;;;;18.65;13.80;;;1.10;1.00;;;;;;5056084;28;20229;-83
2021/11/28 07:27:22;;;;;;;19.05;14.13;;;1.00;1.00;;;;;;5056743;28;20221;-83
2021/11/28 07:29:49;;;;;;;19.33;14.52;;;1.00;1.00;;;;;;5036179;28;20741;-83
2021/11/28 07:32:16;;;;;;;17.83;13.93;;;1.00;1.00;;;;;;5061834;28;20224;-83
2021/11/28 07:34:45;;;;;;;23.88;17.55;;;0.90;1.00;;;;;;5054197;28;20222;-83
2021/11/28 07:37:12;;;;;;;20.35;14.95;;;0.90;1.00;;;;;;5064380;28;20229;-83
2021/11/28 07:39:39;;;;;;;24.52;15.50;;;0.90;1.00;;;;;;5059417;28;20320;-83
2021/11/28 07:42:07;;;;;;;19.55;15.15;;;0.90;1.00;;;;;;5061689;28;20247;-83
2021/11/28 07:44:34;;;;;;;19.33;15.38;;;0.90;1.00;;;;;;5061213;28;20242;-83
2021/11/28 07:47:02;;;;;;;19.63;14.85;;;1.00;1.00;;;;;;5054586;28;20359;-84
2021/11/28 07:49:28;;;;;;;19.42;15.07;;;1.00;1.00;;;;;;5055923;28;20221;-83
2021/11/28 07:51:57;;;;;;;19.00;15.30;;;1.00;1.00;;;;;;5064644;28;20370;-83
2021/11/28 07:54:24;;;;;;;17.58;14.20;;;1.10;1.00;;;;;;5046328;28;20221;-83
2021/11/28 07:56:52;;;;;;;23.38;17.45;;;1.10;1.00;;;;;;5042570;28;20251;-84
2021/11/28 07:59:19;;;;;;;22.55;17.45;;;1.20;1.00;;;;;;5045413;28;20239;-82
2021/11/28 08:01:46;;;;;;;21.98;17.50;;;1.30;1.00;;;;;;5063415;28;20241;-83
2021/11/28 08:04:15;;;;;;;20.10;16.77;;;1.40;1.00;;;;;;5048684;28;20225;-83
2021/11/28 08:06:43;;;;;;;23.48;16.40;;;1.60;1.00;;;;;;5048942;28;20264;-83
2021/11/28 08:09:11;;;;;;;24.40;15.68;;;1.70;1.00;;;;;;5061388;28;20221;-82
2021/11/28 08:11:39;;;;;;;20.73;16.60;;;1.70;1.00;;;;;;5062004;28;20285;-84
2021/11/28 08:14:06;;;;;;;20.35;15.85;;;1.70;1.00;;;;;;5044897;28;20235;-84
2021/11/28 08:16:33;;;;;;;22.27;16.48;;;1.80;1.00;;;;;;5064622;28;20240;-84
2021/11/28 08:19:01;;;;;;;24.77;16.88;;;2.20;1.00;;;;;;5056421;28;20221;-84
2021/11/28 08:21:28;;;;;;;19.52;16.45;;;2.80;1.00;;;;;;5057817;28;20232;-84
2021/11/28 08:23:56;;;;;;;20.77;16.92;;;3.10;1.00;;;;;;5064973;28;20255;-85
2021/11/28 08:26:25;;;;;;;22.77;15.93;;;2.90;1.00;;;;;;5068226;28;20339;-83
2021/11/28 08:28:52;;;;;;;24.23;15.60;;;2.80;1.00;;;;;;5046783;28;20235;-85
2021/11/28 08:31:19;;;;;;;23.02;17.20;;;2.70;1.00;;;;;;5070276;28;20205;-85
2021/11/28 08:33:47;;;;;;;32.45;25.20;;;2.70;1.00;;;;;;5058469;28;20221;-84
2021/11/28 08:36:16;;;;;;;19.30;15.32;;;2.60;1.00;;;;;;5051823;28;20233;-83
2021/11/28 08:38:43;;;;;;;22.15;15.80;;;2.60;1.00;;;;;;5037273;28;20232;-83
2021/11/28 08:41:11;;;;;;;19.98;16.20;;;2.50;1.00;;;;;;5061719;28;20333;-85
2021/11/28 08:43:41;;;;;;;21.00;14.60;;;2.50;1.00;;;;;;5070084;28;20288;-85
2021/11/28 08:46:09;;;;;;;21.13;15.88;;;2.60;1.00;;;;;;5062853;28;20229;-85
2021/11/28 08:48:36;;;;;;;19.10;16.23;;;2.60;1.00;;;;;;5057241;28;20221;-84
2021/11/28 08:51:05;;;;;;;19.77;16.30;;;2.50;1.00;;;;;;5058005;28;20221;-84
2021/11/28 08:53:32;;;;;;;18.48;15.65;;;2.60;1.00;;;;;;5067560;28;21115;-84
2021/11/28 08:55:59;;;;;;;20.17;16.30;;;2.60;1.00;;;;;;5059229;28;20291;-85
2021/11/28 08:58:27;;;;;;;20.95;17.23;;;2.70;1.00;;;;;;5055660;28;20225;-83
2021/11/28 09:00:55;;;;;;;19.25;15.23;;;2.80;1.00;;;;;;5060502;28;20638;-84
2021/11/28 09:03:22;;;;;;;18.50;14.75;;;2.90;1.00;;;;;;5037064;28;20229;-84
2021/11/28 09:05:50;;;;;;;16.83;14.05;;;3.00;1.00;;;;;;5052584;28;20268;-83
2021/11/28 09:08:17;;;;;;;15.85;13.98;;;3.00;1.00;;;;;;5055402;28;20213;-79
2021/11/28 09:10:44;;;;;;;18.90;15.02;;;3.00;1.00;;;;;;5045561;28;21474;-80
2021/11/28 09:13:13;;;;;;;19.73;15.20;;;3.10;1.00;;;;;;5049448;28;20297;-82
2021/11/28 09:15:41;;;;;;;17.73;14.70;;;3.10;1.00;;;;;;5050570;28;20229;-80
2021/11/28 09:18:13;;;;;;;20.92;16.13;;;3.20;1.00;;;;;;5032323;28;20228;-80
2021/11/28 09:20:44;;;;;;;18.15;13.45;;;3.30;1.00;;;;;;5049933;28;20324;-80
2021/11/28 09:25:56;;;;;;;17.83;15.05;;;3.40;1.00;;;;;;5044851;28;20233;-80
2021/11/28 09:28:24;;;;;;;26.25;19.88;;;3.60;1.00;;;;;;5047076;28;20232;-79
2021/11/28 09:30:51;;;;;;;17.20;13.68;;;3.70;1.00;;;;;;5054435;28;20248;-79
2021/11/28 09:33:20;;;;;;;16.10;13.07;;;3.90;1.00;;;;;;5057079;28;20378;-82
2021/11/28 09:35:49;;;;;;;16.10;12.50;;;4.10;1.00;;;;;;5052456;28;21130;-78
2021/11/28 09:38:16;;;;;;;14.55;11.98;;;4.60;1.00;;;;;;5047924;28;20221;-80
2021/11/28 09:40:46;;;;;;;16.13;12.50;;;5.00;1.00;;;;;;5040455;28;20240;-76
2021/11/28 09:43:15;;;;;;;15.05;12.02;;;5.10;1.00;;;;;;5044551;28;20243;-78
2021/11/28 09:45:46;;;;;;;15.57;11.10;;;5.40;1.00;;;;;;5045505;28;20235;-78
2021/11/28 09:48:13;;;;;;;12.45;9.77;;;5.90;1.00;;;;;;5042956;28;20229;-77
2021/11/28 09:50:42;;;;;;;14.15;10.00;;;6.30;1.00;;;;;;5040740;28;20232;-77
2021/11/28 09:53:12;;;;;;;12.32;9.75;;;6.50;1.00;;;;;;5043884;28;20260;-77
2021/11/28 09:55:41;;;;;;;12.13;9.48;;;6.90;1.00;;;;;;5038965;28;20921;-77
2021/11/28 09:58:08;;;;;;;11.77;9.77;;;7.40;1.00;;;;;;5028127;28;20283;-77
2021/11/28 10:11:35;;;;;;;11.38;10.18;;;7.20;1.00;;;;;;5065596;28;20315;-77
2021/11/28 10:14:27;;;;;;;11.98;10.55;;;8.20;1.00;;;;;;5022238;28;20659;-78
2021/11/28 10:17:20;;;;;;;12.00;9.55;;;8.80;1.00;;;;;;5040768;28;20226;-77
2021/11/28 10:19:47;;;;;;;12.10;10.02;;;8.40;1.00;;;;;;5044113;28;20224;-78
2021/11/28 10:22:17;;;;;;;12.07;9.60;;;8.10;1.00;;;;;;5045446;28;20314;-78
2021/11/28 10:25:03;;;;;;;11.43;10.07;;;7.90;1.00;;;;;;5050328;28;20433;-77
2021/11/28 10:27:40;;;;;;;11.43;9.63;;;7.80;1.00;;;;;;5044254;28;20530;-79
2021/11/28 10:30:10;;;;;;;10.90;8.85;;;7.70;1.00;;;;;;5044230;28;20229;-78
2021/11/28 10:32:45;;;;;;;10.50;9.32;;;7.90;1.00;;;;;;5039980;28;20677;-80
2021/11/28 10:35:13;;;;;;;12.00;8.80;;;7.80;1.00;;;;;;5046581;28;20255;-77
2021/11/28 10:37:42;;;;;;;10.80;9.10;;;8.10;1.00;;;;;;5042818;28;20213;-76
2021/11/28 10:40:12;;;;;;;10.40;9.30;;;8.60;1.00;;;;;;5040973;28;20231;-76
2021/11/28 10:42:40;;;;;;;12.85;9.82;;;9.00;1.00;;;;;;5042700;28;20225;-79
2021/11/28 10:45:11;;;;;;;12.00;9.93;;;9.70;1.00;;;;;;5045742;28;20298;-78
2021/11/28 10:47:43;;;;;;;13.07;9.75;;;9.80;1.00;;;;;;5053124;28;20241;-78
2021/11/28 10:50:15;;;;;;;13.18;10.00;;;9.70;1.00;;;;;;5056943;28;20319;-79
2021/11/28 10:52:44;;;;;;;14.80;11.00;;;9.80;1.00;;;;;;5052984;28;20257;-77
2021/11/28 10:55:15;;;;;;;12.60;10.55;;;10.10;1.00;;;;;;5051911;28;20236;-78
2021/11/28 10:57:43;;;;;;;12.10;9.27;;;10.40;1.00;;;;;;5045277;28;20226;-77
2021/11/28 11:00:12;;;;;;;12.23;9.55;;;10.70;1.00;;;;;;5043834;28;20299;-76
2021/11/28 11:02:42;;;;;;;12.83;10.20;;;11.10;1.00;;;;;;5048566;28;20225;-77
2021/11/28 11:05:12;;;;;;;12.13;10.15;;;10.90;1.00;;;;;;5049802;28;22997;-76
2021/11/28 11:07:49;;;;;;;13.27;9.73;;;10.70;1.00;;;;;;5043919;28;20288;-77
2021/11/28 11:10:21;;;;;;;23.27;21.17;;;10.90;1.00;;;;;;5048317;28;20879;-79
2021/11/28 11:12:49;;;;;;;11.95;10.75;;;11.00;1.00;;;;;;5041807;28;20470;-77
2021/11/28 11:15:35;;;;;;;11.20;10.00;;;11.10;1.00;;;;;;5041346;28;20275;-79
2021/11/28 11:18:05;;;;;;;12.27;10.47;;;10.80;1.00;;;;;;5041217;28;22045;-76
2021/11/28 11:20:34;;;;;;;16.20;11.55;;;10.50;1.00;;;;;;5045765;28;20463;-77
2021/11/28 11:23:02;;;;;;;10.90;9.63;;;10.20;1.00;;;;;;5043602;28;20214;-76
2021/11/28 11:25:36;;;;;;;14.32;10.05;;;9.80;1.00;;;;;;5040477;28;20221;-77
2021/11/28 11:28:14;;;;;;;11.63;9.65;;;9.60;1.00;;;;;;5049215;28;20228;-76
2021/11/28 11:30:41;;;;;;;14.57;10.40;;;9.40;1.00;;;;;;5042685;28;20220;-78
2021/11/28 11:33:10;;;;;;;18.00;12.20;;;9.10;1.00;;;;;;5039972;28;20229;-80
2021/11/28 11:35:44;;;;;;;12.18;10.45;;;8.90;1.00;;;;;;5040632;28;20741;-79
2021/11/28 11:38:15;;;;;;;12.20;10.23;;;9.10;1.00;;;;;;5043855;28;20272;-78
2021/11/28 11:40:44;;;;;;;10.95;9.88;;;9.30;1.00;;;;;;5047275;28;20528;-78
2021/11/28 11:43:11;;;;;;;14.80;11.00;;;9.20;1.00;;;;;;5045459;28;20400;-78
2021/11/28 11:45:39;;;;;;;13.38;11.63;;;9.20;1.00;;;;;;5047663;28;20296;-79
2021/11/28 11:48:07;;;;;;;11.65;10.45;;;9.40;1.00;;;;;;5041482;28;20225;-78
2021/11/28 11:50:35;;;;;;;13.70;10.32;;;10.10;1.00;;;;;;5046800;28;20225;-78
2021/11/28 11:53:04;;;;;;;12.40;10.50;;;10.50;1.00;;;;;;5043819;28;20900;-79
2021/11/28 11:55:37;;;;;;;14.27;11.77;;;10.60;1.00;;;;;;5057555;28;20415;-80
2021/11/28 11:58:35;;;;;;;12.40;10.70;;;10.80;1.00;;;;;;5056631;28;20416;-78
2021/11/28 12:01:04;;;;;;;11.17;9.97;;;10.90;1.00;;;;;;5052049;28;20534;-77
2021/11/28 12:03:44;;;;;;;13.88;10.95;;;10.80;1.00;;;;;;5050324;28;21002;-78
2021/11/28 12:06:11;;;;;;;13.63;10.25;;;10.50;1.00;;;;;;5029707;28;20392;-80
2021/11/28 12:08:48;;;;;;;13.27;10.90;;;10.60;1.00;;;;;;5043218;28;20219;-79
2021/11/28 12:11:16;;;;;;;17.13;12.87;;;11.10;1.00;;;;;;5034340;28;20923;-78
2021/11/28 12:14:01;;;;;;;14.77;12.10;;;11.50;1.00;;;;;;5049378;28;20460;-78
2021/11/28 12:16:36;;;;;;;12.50;11.20;;;11.80;1.00;;;;;;5051530;28;20855;-80
2021/11/28 12:19:04;;;;;;;11.30;9.70;;;12.10;1.00;;;;;;5048657;28;20536;-79
2021/11/28 12:21:52;;;;;;;12.63;11.33;;;12.90;1.00;;;;;;5050264;28;20478;-79
2021/11/28 12:24:24;;;;;;;14.47;11.50;;;13.50;1.00;;;;;;5022912;28;20469;-78
2021/11/28 12:26:57;;;;;;;12.30;9.73;;;13.40;1.00;;;;;;5047955;28;20558;-79
2021/11/28 12:29:34;;;;;;;11.97;10.00;;;13.40;1.00;;;;;;5051973;28;20953;-79
2021/11/28 12:32:23;;;;;;;12.23;10.70;;;12.80;1.00;;;;;;5052147;28;21226;-78
2021/11/28 12:34:54;;;;;;;17.03;15.23;;;12.60;1.00;;;;;;5051376;28;20444;-78
2021/11/28 12:37:24;;;;;;;12.97;11.63;;;12.60;1.00;;;;;;5049582;28;20491;-78
2021/11/28 12:39:52;;;;;;;14.00;11.17;;;12.60;1.00;;;;;;5056594;28;20470;-78
2021/11/28 12:42:24;;;;;;;10.73;8.93;;;12.80;1.00;;;;;;5055754;28;20415;-78
2021/11/28 12:45:02;;;;;;;8.17;7.37;;;13.00;1.00;;;;;;5055449;28;20475;-77
2021/11/28 12:47:31;;;;;;;12.57;8.20;;;12.50;1.00;;;;;;5053314;28;20586;-77
2021/11/28 12:50:01;;;;;;;10.87;8.77;;;11.90;1.00;;;;;;5049495;28;20404;-77
2021/11/28 12:52:47;;;;;;;10.33;8.83;;;11.70;1.00;;;;;;5051343;28;20487;-79
2021/11/28 12:55:22;;;;;;;11.70;8.60;;;11.70;1.00;;;;;;5060823;28;21251;-78
2021/11/28 12:58:10;;;;;;;10.50;8.00;;;11.70;1.00;;;;;;5057158;28;20459;-80
2021/11/28 13:00:50;;;;;;;11.50;8.17;;;11.80;1.00;;;;;;5054880;28;20448;-79
2021/11/28 13:03:23;;;;;;;13.70;9.00;;;11.60;1.00;;;;;;5053602;28;20463;-77
2021/11/28 13:05:52;;;;;;;10.60;9.40;;;10.80;1.00;;;;;;5049554;28;24434;-75
2021/11/28 13:08:38;;;;;;;12.43;7.88;;;9.90;1.00;;;;;;5050867;28;20574;-76
2021/11/28 13:11:13;;;;;;;11.70;10.35;;;9.20;1.00;;;;;;5052453;28;20240;-78
2021/11/28 13:13:44;;;;;;;11.25;9.75;;;8.60;1.00;;;;;;5048409;28;20339;-77
2021/11/28 13:16:16;;;;;;;14.75;11.23;;;8.30;1.00;;;;;;5054183;28;20260;-78
2021/11/28 13:18:46;;;;;;;12.20;10.55;;;8.00;1.00;;;;;;5051440;28;20228;-77
2021/11/28 13:21:18;;;;;;;12.95;9.65;;;7.80;1.00;;;;;;5051024;28;20225;-76
2021/11/28 13:23:47;;;;;;;13.93;10.20;;;7.60;1.00;;;;;;5049834;28;21125;-77